createdAt,value
2019-06-07T00:00:39.369Z,99.90
2019-06-07T00:03:23.961Z,99.90
2019-06-07T00:05:44.371Z,99.90
2019-06-07T00:08:24.757Z,99.90
2019-06-07T00:10:49.223Z,99.90
2019-06-07T00:13:30.712Z,99.90
2019-06-07T00:16:00.933Z,99.90
2019-06-07T00:18:31.324Z,99.90
2019-06-07T00:21:01.501Z,99.90
2019-06-07T00:23:31.680Z,99.90
2019-06-07T00:26:01.637Z,99.90
2019-06-07T00:28:33.698Z,99.90
2019-06-07T00:31:03.658Z,99.90
2019-06-07T00:33:33.740Z,99.90
2019-06-07T00:36:03.926Z,99.90
2019-06-07T00:38:33.982Z,99.90
2019-06-07T00:41:04.043Z,99.90
2019-06-07T00:43:34.386Z,99.90
2019-06-07T00:46:04.457Z,99.90
2019-06-07T00:48:34.569Z,99.90
2019-06-07T00:51:04.646Z,99.90
2019-06-07T00:53:34.988Z,99.90
2019-06-07T00:56:05.046Z,99.90
2019-06-07T00:58:35.533Z,99.90
2019-06-07T01:01:06.211Z,99.90
2019-06-07T01:03:36.985Z,99.90
2019-06-07T01:06:07.095Z,99.90
2019-06-07T01:08:37.456Z,99.90
2019-06-07T01:11:07.656Z,99.90
2019-06-07T01:13:38.069Z,99.90
2019-06-07T01:16:08.120Z,99.90
2019-06-07T01:18:45.651Z,99.90
2019-06-07T01:21:10.269Z,99.90
2019-06-07T01:24:08.251Z,99.90
2019-06-07T01:26:12.152Z,99.90
2019-06-07T01:28:42.288Z,99.90
2019-06-07T01:31:12.299Z,99.90
2019-06-07T01:33:50.943Z,99.90
2019-06-07T01:36:14.390Z,99.90
2019-06-07T01:38:44.745Z,99.90
2019-06-07T01:41:16.921Z,99.90
2019-06-07T01:43:47.060Z,99.90
2019-06-07T01:46:18.174Z,99.90
2019-06-07T01:48:49.922Z,99.90
2019-06-07T01:51:22.006Z,99.90
2019-06-07T01:54:41.446Z,99.90
2019-06-07T01:56:26.572Z,99.90
2019-06-07T01:58:55.564Z,99.90
2019-06-07T02:01:26.667Z,99.90
2019-06-07T02:03:57.293Z,99.90
2019-06-07T02:06:31.850Z,99.90
2019-06-07T02:08:59.277Z,99.90
2019-06-07T02:11:31.612Z,99.90
2019-06-07T02:14:00.859Z,99.90
2019-06-07T02:16:32.507Z,99.90
2019-06-07T02:19:03.919Z,99.90
2019-06-07T02:21:34.771Z,99.90
2019-06-07T02:24:05.023Z,99.90
2019-06-07T02:26:34.991Z,99.90
2019-06-07T02:29:05.213Z,99.90
2019-06-07T02:31:39.252Z,99.90
2019-06-07T02:34:07.084Z,99.90
2019-06-07T02:36:41.591Z,99.90
2019-06-07T02:39:09.211Z,99.90
2019-06-07T02:41:40.440Z,99.90
2019-06-07T02:44:10.721Z,99.90
2019-06-07T02:46:48.767Z,99.90
2019-06-07T02:49:13.209Z,99.90
2019-06-07T02:51:43.920Z,99.90
2019-06-07T02:54:14.063Z,99.90
2019-06-07T02:56:58.146Z,99.90
2019-06-07T02:59:18.967Z,99.90
2019-06-07T03:01:50.328Z,99.90
2019-06-07T03:04:20.650Z,99.90
2019-06-07T03:06:51.716Z,99.90
2019-06-07T03:09:22.435Z,99.90
2019-06-07T03:11:55.375Z,99.90
2019-06-07T03:14:28.649Z,99.90
2019-06-07T03:17:09.389Z,99.90
2019-06-07T03:19:43.664Z,99.90
2019-06-07T03:22:13.727Z,99.90
2019-06-07T03:24:45.486Z,99.90
2019-06-07T03:27:35.114Z,99.90
2019-06-07T03:29:48.554Z,99.90
2019-06-07T03:32:19.216Z,99.90
2019-06-07T03:34:49.335Z,99.90
2019-06-07T03:37:19.279Z,99.90
2019-06-07T03:39:50.008Z,99.90
2019-06-07T03:42:20.001Z,99.90
2019-06-07T03:44:50.080Z,99.90
2019-06-07T03:47:20.114Z,99.90
2019-06-07T03:49:50.130Z,99.90
2019-06-07T03:52:20.332Z,99.90
2019-06-07T03:54:50.331Z,99.90
2019-06-07T03:57:20.710Z,99.90
2019-06-07T03:59:50.676Z,99.90
2019-06-07T04:02:21.049Z,99.90
2019-06-07T04:04:51.152Z,99.90
2019-06-07T04:07:22.094Z,99.90
2019-06-07T04:09:52.553Z,99.90
2019-06-07T04:12:22.531Z,99.90
2019-06-07T04:14:52.506Z,99.90
2019-06-07T04:17:22.673Z,99.00
2019-06-07T04:19:52.770Z,98.20
2019-06-07T04:22:23.097Z,98.10
2019-06-07T04:24:53.196Z,97.90
2019-06-07T04:27:23.364Z,97.80
2019-06-07T04:30:06.639Z,97.30
2019-06-07T04:32:26.306Z,96.40
2019-06-07T04:35:02.523Z,95.70
2019-06-07T04:37:36.145Z,95.80
2019-06-07T04:40:06.229Z,95.60
2019-06-07T04:42:44.491Z,94.80
2019-06-07T04:45:32.666Z,94.10
2019-06-07T04:47:44.579Z,94.00
2019-06-07T04:50:15.936Z,94.00
2019-06-07T04:52:46.188Z,93.90
2019-06-07T04:55:16.669Z,92.90
2019-06-07T04:57:47.176Z,91.80
2019-06-07T05:00:48.530Z,90.80
2019-06-07T05:02:52.044Z,89.60
2019-06-07T05:05:22.051Z,88.70
2019-06-07T05:07:52.230Z,88.00
2019-06-07T05:10:22.327Z,85.00
2019-06-07T05:12:52.382Z,81.60
2019-06-07T05:15:22.568Z,79.20
2019-06-07T05:17:52.750Z,79.80
2019-06-07T05:20:24.422Z,79.20
2019-06-07T05:22:54.376Z,76.50
2019-06-07T05:25:24.417Z,75.80
2019-06-07T05:27:54.625Z,73.20
2019-06-07T05:31:04.356Z,71.60
2019-06-07T05:33:14.584Z,68.50
2019-06-07T05:35:44.712Z,68.10
2019-06-07T05:38:15.710Z,67.20
2019-06-07T05:40:48.552Z,64.30
2019-06-07T05:43:25.734Z,61.30
2019-06-07T05:45:55.883Z,60.30
2019-06-07T05:48:26.761Z,58.40
2019-06-07T05:50:57.731Z,54.80
2019-06-07T05:53:28.068Z,53.90
2019-06-07T05:55:58.090Z,53.40
2019-06-07T05:58:28.608Z,54.00
2019-06-07T06:01:41.062Z,53.90
2019-06-07T06:03:30.270Z,53.20
2019-06-07T06:06:00.505Z,53.90
2019-06-07T06:08:30.516Z,53.20
2019-06-07T06:11:00.504Z,51.90
2019-06-07T06:13:30.568Z,51.90
2019-06-07T06:16:02.377Z,52.70
2019-06-07T06:18:32.760Z,50.90
2019-06-07T06:21:16.056Z,49.80
2019-06-07T06:23:34.577Z,48.20
2019-06-07T06:26:04.672Z,47.60
2019-06-07T06:28:36.922Z,46.30
2019-06-07T06:31:06.734Z,46.60
2019-06-07T06:33:37.513Z,43.20
2019-06-07T06:36:07.726Z,43.20
2019-06-07T06:38:38.605Z,41.90
2019-06-07T06:41:16.021Z,41.70
2019-06-07T06:43:46.205Z,42.60
2019-06-07T06:46:14.011Z,44.20
2019-06-07T06:48:50.908Z,45.40
2019-06-07T06:51:15.719Z,44.70
2019-06-07T06:53:46.919Z,43.90
2019-06-07T06:56:17.838Z,42.30
2019-06-07T06:59:27.236Z,41.90
2019-06-07T07:01:29.369Z,41.60
2019-06-07T07:04:20.007Z,38.80
2019-06-07T07:06:53.474Z,37.20
2019-06-07T07:09:30.272Z,36.10
2019-06-07T07:12:11.982Z,36.40
2019-06-07T07:14:42.224Z,37.30
2019-06-07T07:17:15.747Z,36.80
2019-06-07T07:19:50.432Z,36.70
2019-06-07T07:22:37.512Z,39.60
2019-06-07T07:25:07.149Z,40.30
2019-06-07T07:27:40.439Z,40.60
2019-06-07T07:30:36.654Z,40.70
2019-06-07T07:33:07.028Z,39.70
2019-06-07T07:35:39.381Z,38.70
2019-06-07T07:38:10.096Z,37.80
2019-06-07T07:41:07.712Z,38.00
2019-06-07T07:43:16.776Z,37.50
2019-06-07T07:45:57.783Z,36.60
2019-06-07T07:48:48.579Z,35.00
2019-06-07T07:51:22.141Z,34.80
2019-06-07T07:54:09.688Z,34.80
2019-06-07T07:56:31.989Z,34.20
2019-06-07T07:59:04.461Z,34.20
2019-06-07T08:01:37.884Z,34.30
2019-06-07T08:04:12.404Z,34.00
2019-06-07T08:06:54.761Z,34.00
2019-06-07T08:09:26.574Z,33.00
2019-06-07T08:12:00.713Z,33.90
2019-06-07T08:14:28.745Z,36.90
2019-06-07T08:17:01.374Z,38.10
2019-06-07T08:19:31.687Z,38.90
2019-06-07T08:22:03.527Z,37.40
2019-06-07T08:24:34.087Z,35.80
2019-06-07T08:27:37.995Z,37.90
2019-06-07T08:30:47.274Z,38.10
2019-06-07T08:32:50.982Z,37.10
2019-06-07T08:36:03.090Z,37.90
2019-06-07T08:38:21.525Z,38.40
2019-06-07T08:40:25.699Z,40.80
2019-06-07T08:43:18.343Z,45.50
2019-06-07T08:45:28.587Z,42.80
2019-06-07T08:48:13.123Z,39.60
2019-06-07T08:50:39.694Z,36.90
2019-06-07T08:53:18.700Z,38.30
2019-06-07T08:56:09.832Z,39.50
2019-06-07T08:59:02.998Z,36.60
2019-06-07T09:01:54.538Z,39.30
2019-06-07T09:04:19.840Z,43.40
2019-06-07T09:07:13.814Z,39.40
2019-06-07T09:09:37.557Z,41.80
2019-06-07T09:12:11.246Z,43.10
2019-06-07T09:14:59.862Z,39.60
2019-06-07T09:17:23.048Z,41.00
2019-06-07T09:20:07.325Z,44.60
2019-06-07T09:22:38.106Z,45.60
2019-06-07T09:25:20.708Z,41.80
2019-06-07T09:28:10.396Z,44.00
2019-06-07T09:31:10.523Z,47.40
2019-06-07T09:34:08.000Z,45.90
2019-06-07T09:36:39.328Z,45.40
2019-06-07T09:39:18.537Z,45.40
2019-06-07T09:41:50.697Z,42.40
2019-06-07T09:44:30.196Z,36.60
2019-06-07T09:47:20.669Z,33.30
2019-06-07T09:49:44.261Z,33.30
2019-06-07T09:52:14.366Z,34.30
2019-06-07T09:55:19.589Z,34.50
2019-06-07T09:57:27.958Z,32.10
2019-06-07T10:00:38.628Z,35.50
2019-06-07T10:02:46.404Z,37.40
2019-06-07T10:05:22.144Z,37.40
2019-06-07T10:08:09.712Z,33.70
2019-06-07T10:13:06.483Z,33.80
2019-06-07T10:15:38.024Z,36.80
2019-06-07T10:18:16.597Z,37.70
2019-06-07T10:20:52.805Z,35.30
2019-06-07T10:23:29.694Z,36.50
2019-06-07T10:26:00.045Z,34.30
2019-06-07T10:28:30.173Z,36.20
2019-06-07T10:31:11.277Z,35.10
2019-06-07T10:33:41.974Z,35.10
2019-06-07T10:36:21.833Z,34.50
2019-06-07T10:38:52.056Z,38.60
2019-06-07T10:41:29.976Z,38.10
2019-06-07T10:44:01.054Z,37.00
2019-06-07T10:46:31.636Z,36.60
2019-06-07T10:49:02.170Z,40.00
2019-06-07T10:51:44.305Z,42.20
2019-06-07T10:54:27.961Z,43.70
2019-06-07T10:56:58.325Z,48.30
2019-06-07T10:59:31.696Z,49.30
2019-06-07T11:02:05.701Z,51.10
2019-06-07T11:04:39.486Z,51.00
2019-06-07T11:07:10.094Z,51.50
2019-06-07T11:09:40.453Z,52.50
2019-06-07T11:12:17.617Z,53.70
2019-06-07T11:14:50.651Z,53.70
2019-06-07T11:17:23.287Z,55.70
2019-06-07T11:20:01.060Z,57.30
2019-06-07T11:22:37.415Z,57.50
2019-06-07T11:25:12.827Z,57.00
2019-06-07T11:27:44.317Z,57.70
2019-06-07T11:30:15.485Z,59.30
2019-06-07T11:32:45.934Z,58.20
2019-06-07T11:35:19.022Z,58.90
2019-06-07T11:37:56.261Z,58.30
2019-06-07T11:40:35.445Z,59.70
2019-06-07T11:43:08.510Z,61.20
2019-06-07T11:45:40.969Z,61.60
2019-06-07T11:48:15.518Z,62.00
2019-06-07T11:50:48.771Z,60.30
2019-06-07T11:53:20.012Z,60.00
2019-06-07T11:55:50.624Z,62.00
2019-06-07T11:58:21.914Z,62.70
2019-06-07T12:01:09.522Z,64.30
2019-06-07T12:06:51.895Z,64.60
2019-06-07T12:09:27.966Z,63.80
2019-06-07T12:11:57.036Z,64.50
2019-06-07T12:14:27.171Z,65.10
2019-06-07T12:16:58.584Z,64.90
2019-06-07T12:19:30.714Z,64.90
2019-06-07T12:22:00.844Z,65.60
2019-06-07T12:24:31.011Z,66.70
2019-06-07T12:27:00.886Z,66.10
2019-06-07T12:29:33.866Z,67.00
2019-06-07T12:32:02.436Z,67.20
2019-06-07T12:34:32.537Z,68.10
2019-06-07T12:37:02.471Z,69.30
2019-06-07T12:39:34.177Z,67.60
2019-06-07T12:42:07.005Z,69.30
2019-06-07T12:44:38.608Z,69.50
2019-06-07T12:47:10.568Z,70.00
2019-06-07T12:50:07.083Z,70.90
2019-06-07T12:52:41.539Z,70.90
2019-06-07T12:55:17.769Z,71.00
2019-06-07T12:57:47.829Z,71.70
2019-06-07T13:00:18.306Z,72.30
2019-06-07T13:02:48.511Z,71.00
2019-06-07T13:05:19.927Z,71.70
2019-06-07T13:07:50.062Z,72.40
2019-06-07T13:10:22.216Z,72.30
2019-06-07T13:12:52.691Z,72.60
2019-06-07T13:15:25.730Z,72.90
2019-06-07T13:17:58.524Z,72.10
2019-06-07T13:20:30.395Z,72.00
2019-06-07T13:23:00.677Z,72.20
2019-06-07T13:25:45.679Z,72.10
2019-06-07T13:28:06.562Z,71.20
2019-06-07T13:30:37.201Z,70.10
2019-06-07T13:33:07.930Z,69.00
2019-06-07T13:35:37.816Z,69.80
2019-06-07T13:38:13.482Z,69.40
2019-06-07T13:40:43.579Z,68.10
2019-06-07T13:43:13.765Z,66.70
2019-06-07T13:45:54.239Z,66.90
2019-06-07T13:48:27.790Z,66.90
2019-06-07T13:50:58.348Z,67.50
2019-06-07T13:53:29.112Z,68.10
2019-06-07T13:55:59.513Z,69.70
2019-06-07T13:58:29.775Z,71.40
2019-06-07T14:00:59.911Z,71.90
2019-06-07T14:03:33.541Z,71.40
2019-06-07T14:06:04.844Z,71.30
2019-06-07T14:08:35.264Z,73.00
2019-06-07T14:11:15.482Z,72.40
2019-06-07T14:13:45.702Z,73.00
2019-06-07T14:16:16.034Z,74.00
2019-06-07T14:18:46.041Z,73.60
2019-06-07T14:21:17.653Z,74.00
2019-06-07T14:23:49.346Z,75.10
2019-06-07T14:26:21.162Z,75.40
2019-06-07T14:28:51.363Z,76.10
2019-06-07T14:31:22.130Z,76.40
2019-06-07T14:33:52.154Z,76.80
2019-06-07T14:36:22.738Z,77.20
2019-06-07T14:38:52.840Z,76.80
2019-06-07T14:41:27.249Z,76.10
2019-06-07T14:43:56.973Z,76.10
2019-06-07T14:46:28.192Z,76.70
2019-06-07T14:48:58.359Z,77.00
2019-06-07T14:51:31.771Z,78.20
2019-06-07T14:54:01.926Z,78.20
2019-06-07T14:56:37.220Z,79.00
2019-06-07T14:59:07.174Z,78.80
2019-06-07T15:01:37.153Z,78.80
2019-06-07T15:04:07.288Z,78.90
2019-06-07T15:06:38.648Z,79.40
2019-06-07T15:09:09.410Z,78.90
2019-06-07T15:11:45.216Z,79.00
2019-06-07T15:14:16.836Z,79.50
2019-06-07T15:16:51.859Z,79.10
2019-06-07T15:19:24.173Z,79.60
2019-06-07T15:22:06.032Z,80.40
2019-06-07T15:24:39.355Z,81.00
2019-06-07T15:27:08.327Z,81.00
2019-06-07T15:29:46.474Z,81.70
2019-06-07T15:32:16.806Z,81.80
2019-06-07T15:34:52.044Z,82.80
2019-06-07T15:37:24.198Z,81.80
2019-06-07T15:39:54.129Z,81.50
2019-06-07T15:42:41.694Z,81.70
2019-06-07T15:44:58.870Z,82.00
2019-06-07T15:47:29.561Z,82.40
2019-06-07T15:50:01.487Z,83.30
2019-06-07T15:52:38.283Z,83.10
2019-06-07T15:55:10.121Z,83.60
2019-06-07T15:57:41.885Z,83.40
2019-06-07T16:00:14.267Z,82.90
2019-06-07T16:02:46.282Z,83.00
2019-06-07T16:05:16.966Z,83.40
2019-06-07T16:07:50.010Z,84.40
2019-06-07T16:10:21.835Z,84.50
2019-06-07T16:13:00.197Z,84.30
2019-06-07T16:15:24.059Z,84.80
2019-06-07T16:17:54.065Z,84.80
2019-06-07T16:20:24.366Z,84.20
2019-06-07T16:22:54.451Z,84.20
2019-06-07T16:25:24.706Z,83.80
2019-06-07T16:27:54.702Z,83.80
2019-06-07T16:30:27.191Z,83.70
2019-06-07T16:33:04.379Z,84.60
2019-06-07T16:35:34.937Z,84.40
2019-06-07T16:38:10.818Z,84.50
2019-06-07T16:40:44.615Z,84.30
2019-06-07T16:43:17.799Z,84.70
2019-06-07T16:45:49.142Z,84.10
2019-06-07T16:48:19.342Z,84.90
2019-06-07T16:50:50.991Z,84.80
2019-06-07T16:53:25.207Z,85.20
2019-06-07T16:55:55.920Z,86.20
2019-06-07T16:58:38.333Z,85.80
2019-06-07T17:01:17.571Z,85.60
2019-06-07T17:03:56.316Z,86.30
2019-06-07T17:06:48.176Z,86.00
2019-06-07T17:09:19.534Z,86.30
2019-06-07T17:11:53.104Z,86.90
2019-06-07T17:18:52.231Z,87.00
2019-06-07T17:21:35.977Z,87.20
2019-06-07T17:24:12.922Z,87.80
2019-06-07T17:26:43.456Z,88.10
2019-06-07T17:29:15.553Z,88.60
2019-06-07T17:31:48.199Z,89.20
2019-06-07T17:34:20.155Z,89.00
2019-06-07T17:36:50.745Z,88.70
2019-06-07T17:39:21.156Z,89.10
2019-06-07T17:42:01.746Z,89.00
2019-06-07T17:44:24.555Z,89.70
2019-06-07T17:47:03.747Z,90.20
2019-06-07T17:49:37.013Z,90.00
2019-06-07T17:52:07.152Z,90.40
2019-06-07T17:54:38.919Z,90.40
2019-06-07T17:57:09.173Z,90.70
2019-06-07T17:59:39.346Z,90.70
2019-06-07T18:02:15.782Z,91.10
2019-06-07T18:04:51.129Z,90.90
2019-06-07T18:07:24.831Z,91.20
2019-06-07T18:10:10.350Z,91.60
2019-06-07T18:12:48.137Z,91.50
2019-06-07T18:15:21.809Z,91.80
2019-06-07T18:17:52.838Z,92.20
2019-06-07T18:20:26.258Z,92.10
2019-06-07T18:23:04.818Z,92.50
2019-06-07T18:25:46.420Z,93.10
2019-06-07T18:28:19.415Z,93.00
2019-06-07T18:31:24.694Z,93.40
2019-06-07T18:42:52.906Z,94.60
2019-06-07T18:49:51.519Z,94.90
2019-06-07T19:05:00.864Z,96.50
2019-06-07T19:06:18.793Z,96.70
2019-06-07T19:08:53.558Z,97.20
2019-06-07T19:11:27.019Z,97.30
2019-06-07T19:13:57.516Z,97.30
2019-06-07T19:16:35.559Z,97.70
2019-06-07T19:19:32.723Z,97.60
2019-06-07T19:22:03.333Z,97.50
2019-06-07T19:44:35.090Z,98.50
2019-06-07T19:58:53.518Z,99.90
2019-06-07T20:19:08.987Z,99.90
2019-06-07T20:21:39.185Z,99.90
2019-06-07T20:24:25.922Z,99.90
2019-06-07T20:26:40.948Z,99.90
2019-06-07T20:29:25.436Z,99.90
2019-06-07T20:31:43.084Z,99.90
2019-06-07T20:34:14.469Z,99.90
2019-06-07T20:36:45.941Z,99.90
2019-06-07T20:39:16.055Z,99.90
2019-06-07T20:41:46.094Z,99.90
2019-06-07T20:44:16.977Z,99.90
2019-06-07T20:46:47.231Z,99.90
2019-06-07T20:49:17.174Z,99.90
2019-06-07T20:51:47.175Z,99.90
2019-06-07T20:54:17.062Z,99.90
2019-06-07T20:56:47.280Z,99.90
2019-06-07T20:59:17.424Z,99.90
2019-06-07T21:01:47.666Z,99.90
2019-06-07T21:04:17.795Z,99.90
2019-06-07T21:06:48.037Z,99.90
2019-06-07T21:09:18.047Z,99.90
2019-06-07T21:11:48.050Z,99.90
2019-06-07T21:14:18.366Z,99.90
2019-06-07T21:16:48.970Z,99.90
2019-06-07T21:19:18.914Z,99.90
2019-06-07T21:21:48.987Z,99.90
2019-06-07T21:24:18.913Z,99.90
2019-06-07T21:26:52.986Z,99.90
2019-06-07T21:29:20.920Z,99.90
2019-06-07T21:31:50.928Z,99.90
2019-06-07T21:34:20.868Z,99.90
2019-06-07T21:36:51.809Z,99.90
2019-06-07T21:39:21.985Z,99.90
2019-06-07T21:41:52.177Z,99.90
2019-06-07T21:44:22.224Z,99.90
2019-06-07T21:46:52.226Z,99.90
2019-06-07T21:49:22.460Z,99.90
2019-06-07T21:51:52.393Z,99.90
2019-06-07T21:54:22.304Z,99.90
2019-06-07T21:56:52.476Z,99.90
2019-06-07T21:59:22.358Z,99.90
2019-06-07T22:01:52.661Z,99.90
2019-06-07T22:04:22.757Z,99.90
2019-06-07T22:06:53.322Z,99.90
2019-06-07T22:09:23.340Z,99.90
2019-06-07T22:11:53.419Z,99.90
2019-06-07T22:14:23.414Z,99.90
2019-06-07T22:16:53.294Z,99.90
2019-06-07T22:19:23.242Z,99.90
2019-06-07T22:22:02.261Z,99.90
2019-06-07T22:24:25.112Z,99.90
2019-06-07T22:26:55.137Z,99.90
2019-06-07T22:29:25.288Z,99.90
2019-06-07T22:31:55.256Z,99.90
2019-06-07T22:34:25.243Z,99.90
2019-06-07T22:36:55.276Z,99.90
2019-06-07T22:39:25.420Z,99.90
2019-06-07T22:41:55.355Z,99.90
2019-06-07T22:44:25.392Z,99.90
2019-06-07T22:46:55.363Z,99.90
2019-06-07T22:49:25.375Z,99.90
2019-06-07T22:52:07.953Z,99.90
2019-06-07T22:54:27.084Z,99.90
2019-06-07T22:57:01.798Z,99.90
2019-06-07T22:59:31.669Z,99.90
2019-06-07T23:02:01.838Z,99.90
2019-06-07T23:04:31.758Z,99.90
2019-06-07T23:07:01.754Z,99.90
2019-06-07T23:09:32.043Z,99.90
2019-06-07T23:12:02.184Z,99.90
2019-06-07T23:14:32.335Z,99.90
2019-06-07T23:17:02.471Z,99.90
2019-06-07T23:19:32.627Z,99.90
2019-06-07T23:22:02.760Z,99.90
2019-06-07T23:24:33.051Z,99.90
2019-06-07T23:27:03.095Z,99.90
2019-06-07T23:29:33.168Z,99.90
2019-06-07T23:32:03.102Z,99.90
2019-06-07T23:34:33.019Z,99.90
2019-06-07T23:37:03.105Z,99.90
2019-06-07T23:39:33.146Z,99.90
2019-06-07T23:42:03.101Z,99.90
2019-06-07T23:44:33.328Z,99.90
2019-06-07T23:47:11.438Z,99.90
2019-06-07T23:49:34.980Z,99.90
2019-06-07T23:52:05.768Z,99.90
2019-06-07T23:54:35.749Z,99.90
2019-06-07T23:57:05.835Z,99.90
2019-06-07T23:59:35.823Z,99.90
